ESMT/HAD METAR and TAF weather

Enter ICAO airport designator
Station Type Date Time Source
ESMT METAR 2019/06/26 21:50 UTC NOAA

ESMT 262150Z AUTO 29013KT 9999 BKN012/// BKN017/// 17/14 Q1018


Station Type Date Time Source
ESMT Decoded METAR 2019/06/26 21:50 UTC NOAA

Halmstad Swedish Air Force Base , Sweden (ESMT) 56-41N 012-50E
Jun 26, 2019 - 05:50 PM EDT / 2019.06.26 2150 UTC
Wind: from the WNW (290 degrees) at 15 MPH (13 KT):0
Visibility: greater than 7 mile(s):0
Sky conditions: mostly cloudy
Temperature: 62 F (17 C)
Dew Point: 57 F (14 C)
Relative Humidity: 82%
Pressure (altimeter): 30.06 in. Hg (1018 hPa)
ob: ESMT 262150Z AUTO 29013KT 9999 BKN012/// BKN017/// 17/14 Q1018
cycle: 22

Station Type Date Time Source
ESMT TAF 2017/04/24 06:33 UTC NOAA

TAF TAF ESMT 240513Z 2406/2506 22018KT 9999 BKN018
TEMPO 2406/2413 22018G30KT 4000 RADZ BKN008
TEMPO 2413/2415 24020G30KT 4000 SHRA BKN014 SCT020CB

Example: see airport list